sensor_id;sensor_type;location;lat;lon;timestamp;pressure;altitude;pressure_sealevel;temperature;humidity
23473;BME280;11909;52.516;13.564;2023-07-13T00:00:55;100642.50;;;20.05;60.83
23473;BME280;11909;52.516;13.564;2023-07-13T00:03:23;100640.06;;;20.04;60.67
23473;BME280;11909;52.516;13.564;2023-07-13T00:05:59;100637.75;;;19.94;61.35
23473;BME280;11909;52.516;13.564;2023-07-13T00:08:30;100639.25;;;19.91;61.77
23473;BME280;11909;52.516;13.564;2023-07-13T00:10:59;100637.59;;;19.90;61.90
23473;BME280;11909;52.516;13.564;2023-07-13T00:13:27;100641.13;;;19.99;61.43
23473;BME280;11909;52.516;13.564;2023-07-13T00:15:56;100647.38;;;20.09;60.03
23473;BME280;11909;52.516;13.564;2023-07-13T00:18:24;100656.78;;;20.16;59.54
23473;BME280;11909;52.516;13.564;2023-07-13T00:20:52;100655.63;;;20.17;59.08
23473;BME280;11909;52.516;13.564;2023-07-13T00:23:22;100653.53;;;20.27;58.70
23473;BME280;11909;52.516;13.564;2023-07-13T00:25:49;100662.72;;;20.27;58.33
23473;BME280;11909;52.516;13.564;2023-07-13T00:28:18;100654.47;;;20.18;58.35
23473;BME280;11909;52.516;13.564;2023-07-13T00:30:46;100658.75;;;20.16;59.04
23473;BME280;11909;52.516;13.564;2023-07-13T00:33:14;100653.53;;;20.14;59.39
23473;BME280;11909;52.516;13.564;2023-07-13T00:35:44;100663.53;;;20.15;59.88
23473;BME280;11909;52.516;13.564;2023-07-13T00:38:12;100647.38;;;20.09;60.29
23473;BME280;11909;52.516;13.564;2023-07-13T00:40:42;100647.63;;;20.03;60.54
23473;BME280;11909;52.516;13.564;2023-07-13T00:43:12;100657.94;;;20.03;60.27
23473;BME280;11909;52.516;13.564;2023-07-13T00:48:47;100659.56;;;19.91;60.36
23473;BME280;11909;52.516;13.564;2023-07-13T00:51:20;100662.56;;;19.86;60.16
23473;BME280;11909;52.516;13.564;2023-07-13T00:53:49;100667.06;;;19.78;60.41
23473;BME280;11909;52.516;13.564;2023-07-13T00:56:19;100644.06;;;19.69;62.07
23473;BME280;11909;52.516;13.564;2023-07-13T00:58:48;100651.16;;;19.67;62.67
23473;BME280;11909;52.516;13.564;2023-07-13T01:01:16;100646.38;;;19.67;62.25
23473;BME280;11909;52.516;13.564;2023-07-13T01:03:45;100654.63;;;19.63;62.08
23473;BME280;11909;52.516;13.564;2023-07-13T01:06:13;100654.34;;;19.56;61.74
23473;BME280;11909;52.516;13.564;2023-07-13T01:08:42;100655.28;;;19.48;61.70
23473;BME280;11909;52.516;13.564;2023-07-13T01:11:10;100651.09;;;19.42;62.47
23473;BME280;11909;52.516;13.564;2023-07-13T01:13:39;100647.84;;;19.40;62.24
23473;BME280;11909;52.516;13.564;2023-07-13T01:16:15;100653.03;;;19.41;62.03
23473;BME280;11909;52.516;13.564;2023-07-13T01:18:45;100662.78;;;19.35;62.30
23473;BME280;11909;52.516;13.564;2023-07-13T01:21:15;100662.16;;;19.29;62.44
23473;BME280;11909;52.516;13.564;2023-07-13T01:23:42;100658.44;;;19.25;62.52
23473;BME280;11909;52.516;13.564;2023-07-13T01:26:11;100664.69;;;19.22;62.77
23473;BME280;11909;52.516;13.564;2023-07-13T01:28:39;100661.91;;;19.22;63.07
23473;BME280;11909;52.516;13.564;2023-07-13T01:31:07;100658.13;;;19.05;63.99
23473;BME280;11909;52.516;13.564;2023-07-13T01:33:37;100654.72;;;19.00;64.94
23473;BME280;11909;52.516;13.564;2023-07-13T01:36:06;100656.22;;;18.97;65.02
23473;BME280;11909;52.516;13.564;2023-07-13T01:38:35;100646.41;;;19.00;65.32
23473;BME280;11909;52.516;13.564;2023-07-13T01:41:03;100655.59;;;18.91;65.05
23473;BME280;11909;52.516;13.564;2023-07-13T01:43:31;100656.97;;;18.85;65.46
23473;BME280;11909;52.516;13.564;2023-07-13T01:46:00;100652.09;;;18.82;65.99
23473;BME280;11909;52.516;13.564;2023-07-13T01:48:47;100643.47;;;18.75;66.31
23473;BME280;11909;52.516;13.564;2023-07-13T01:51:17;100651.69;;;18.71;66.45
23473;BME280;11909;52.516;13.564;2023-07-13T01:53:46;100647.59;;;18.69;66.39
23473;BME280;11909;52.516;13.564;2023-07-13T01:56:14;100644.34;;;18.67;66.84
23473;BME280;11909;52.516;13.564;2023-07-13T01:58:42;100635.38;;;18.61;67.38
23473;BME280;11909;52.516;13.564;2023-07-13T02:01:10;100636.91;;;18.58;67.41
23473;BME280;11909;52.516;13.564;2023-07-13T02:03:37;100634.34;;;18.44;68.05
23473;BME280;11909;52.516;13.564;2023-07-13T02:06:05;100637.13;;;18.44;67.83
23473;BME280;11909;52.516;13.564;2023-07-13T02:08:34;100638.16;;;18.40;68.24
23473;BME280;11909;52.516;13.564;2023-07-13T02:11:03;100632.13;;;18.38;68.21
23473;BME280;11909;52.516;13.564;2023-07-13T02:13:32;100632.97;;;18.29;68.81
23473;BME280;11909;52.516;13.564;2023-07-13T02:15:59;100634.97;;;18.29;69.03
23473;BME280;11909;52.516;13.564;2023-07-13T02:18:28;100633.44;;;18.31;68.78
23473;BME280;11909;52.516;13.564;2023-07-13T02:20:55;100640.56;;;18.20;69.24
23473;BME280;11909;52.516;13.564;2023-07-13T02:23:23;100640.56;;;18.20;69.23
23473;BME280;11909;52.516;13.564;2023-07-13T02:25:55;100633.03;;;18.20;68.98
23473;BME280;11909;52.516;13.564;2023-07-13T02:28:24;100624.56;;;18.17;69.28
23473;BME280;11909;52.516;13.564;2023-07-13T02:30:52;100625.72;;;18.16;69.35
23473;BME280;11909;52.516;13.564;2023-07-13T02:33:20;100619.84;;;18.09;70.75
23473;BME280;11909;52.516;13.564;2023-07-13T02:35:48;100622.31;;;18.10;70.96
23473;BME280;11909;52.516;13.564;2023-07-13T02:38:16;100619.56;;;18.01;71.35
23473;BME280;11909;52.516;13.564;2023-07-13T02:40:46;100619.38;;;17.98;71.34
23473;BME280;11909;52.516;13.564;2023-07-13T02:43:14;100624.84;;;17.85;71.39
23473;BME280;11909;52.516;13.564;2023-07-13T02:45:44;100636.91;;;17.89;71.37
23473;BME280;11909;52.516;13.564;2023-07-13T02:48:14;100636.28;;;17.84;72.35
23473;BME280;11909;52.516;13.564;2023-07-13T02:50:42;100631.53;;;17.84;71.86
23473;BME280;11909;52.516;13.564;2023-07-13T02:53:09;100642.81;;;17.88;71.79
23473;BME280;11909;52.516;13.564;2023-07-13T02:55:38;100642.84;;;17.79;72.37
23473;BME280;11909;52.516;13.564;2023-07-13T02:58:07;100636.16;;;17.80;72.07
23473;BME280;11909;52.516;13.564;2023-07-13T03:00:39;100632.72;;;17.74;72.56
23473;BME280;11909;52.516;13.564;2023-07-13T03:03:09;100643.84;;;17.66;73.46
23473;BME280;11909;52.516;13.564;2023-07-13T03:05:37;100641.09;;;17.57;74.47
23473;BME280;11909;52.516;13.564;2023-07-13T03:08:05;100639.00;;;17.54;75.02
23473;BME280;11909;52.516;13.564;2023-07-13T03:10:33;100652.00;;;17.62;74.33
23473;BME280;11909;52.516;13.564;2023-07-13T03:13:02;100657.56;;;17.62;74.06
23473;BME280;11909;52.516;13.564;2023-07-13T03:15:30;100659.38;;;17.58;74.34
23473;BME280;11909;52.516;13.564;2023-07-13T03:17:58;100649.91;;;17.59;74.30
23473;BME280;11909;52.516;13.564;2023-07-13T03:20:27;100653.66;;;17.63;74.17
23473;BME280;11909;52.516;13.564;2023-07-13T03:22:55;100654.47;;;17.63;73.97
23473;BME280;11909;52.516;13.564;2023-07-13T03:25:23;100657.09;;;17.60;74.42
23473;BME280;11909;52.516;13.564;2023-07-13T03:27:51;100664.75;;;17.63;74.40
23473;BME280;11909;52.516;13.564;2023-07-13T03:30:19;100657.25;;;17.63;74.56
23473;BME280;11909;52.516;13.564;2023-07-13T03:32:47;100658.88;;;17.65;74.50
23473;BME280;11909;52.516;13.564;2023-07-13T03:35:15;100661.47;;;17.70;74.29
23473;BME280;11909;52.516;13.564;2023-07-13T03:37:44;100666.53;;;17.68;74.66
23473;BME280;11909;52.516;13.564;2023-07-13T03:40:13;100669.00;;;17.69;74.61
23473;BME280;11909;52.516;13.564;2023-07-13T03:42:41;100670.47;;;17.67;74.63
23473;BME280;11909;52.516;13.564;2023-07-13T03:45:09;100674.88;;;17.68;74.93
23473;BME280;11909;52.516;13.564;2023-07-13T03:47:37;100674.38;;;17.66;75.47
23473;BME280;11909;52.516;13.564;2023-07-13T03:50:06;100669.31;;;17.68;75.53
23473;BME280;11909;52.516;13.564;2023-07-13T03:52:34;100672.09;;;17.68;75.71
23473;BME280;11909;52.516;13.564;2023-07-13T03:55:04;100674.38;;;17.66;75.70
23473;BME280;11909;52.516;13.564;2023-07-13T03:57:32;100675.53;;;17.65;75.92
23473;BME280;11909;52.516;13.564;2023-07-13T04:00:06;100676.34;;;17.65;75.90
23473;BME280;11909;52.516;13.564;2023-07-13T04:02:35;100681.38;;;17.72;76.11
23473;BME280;11909;52.516;13.564;2023-07-13T04:05:04;100682.19;;;17.72;76.67
23473;BME280;11909;52.516;13.564;2023-07-13T04:07:33;100683.84;;;17.73;76.51
23473;BME280;11909;52.516;13.564;2023-07-13T04:10:01;100673.53;;;17.74;76.87
23473;BME280;11909;52.516;13.564;2023-07-13T04:12:30;100680.38;;;17.76;77.07
23473;BME280;11909;52.516;13.564;2023-07-13T04:14:58;100672.53;;;17.78;76.84
23473;BME280;11909;52.516;13.564;2023-07-13T04:17:26;100678.38;;;17.86;76.80
23473;BME280;11909;52.516;13.564;2023-07-13T04:19:54;100684.28;;;17.84;77.08
23473;BME280;11909;52.516;13.564;2023-07-13T04:22:22;100682.00;;;17.86;77.07
23473;BME280;11909;52.516;13.564;2023-07-13T04:24:50;100681.13;;;17.95;76.35
23473;BME280;11909;52.516;13.564;2023-07-13T04:27:18;100690.44;;;17.99;76.56
23473;BME280;11909;52.516;13.564;2023-07-13T04:29:49;100684.75;;;18.04;76.57
23473;BME280;11909;52.516;13.564;2023-07-13T04:32:18;100694.34;;;18.06;77.24
23473;BME280;11909;52.516;13.564;2023-07-13T04:34:46;100691.56;;;18.06;77.48
23473;BME280;11909;52.516;13.564;2023-07-13T04:37:14;100687.31;;;18.09;77.81
23473;BME280;11909;52.516;13.564;2023-07-13T04:39:41;100694.50;;;18.10;78.55
23473;BME280;11909;52.516;13.564;2023-07-13T04:42:09;100687.81;;;18.11;78.72
23473;BME280;11909;52.516;13.564;2023-07-13T04:44:38;100696.78;;;18.17;78.40
23473;BME280;11909;52.516;13.564;2023-07-13T04:47:07;100698.53;;;18.22;77.44
23473;BME280;11909;52.516;13.564;2023-07-13T04:49:35;100708.66;;;18.26;76.80
23473;BME280;11909;52.516;13.564;2023-07-13T04:52:03;100713.69;;;18.33;76.23
23473;BME280;11909;52.516;13.564;2023-07-13T04:54:31;100713.16;;;18.40;75.57
23473;BME280;11909;52.516;13.564;2023-07-13T04:56:59;100724.56;;;18.47;73.82
23473;BME280;11909;52.516;13.564;2023-07-13T04:59:27;100723.09;;;18.49;74.08
23473;BME280;11909;52.516;13.564;2023-07-13T05:01:55;100719.63;;;18.53;73.30
23473;BME280;11909;52.516;13.564;2023-07-13T05:04:24;100725.81;;;18.58;73.28
23473;BME280;11909;52.516;13.564;2023-07-13T05:06:53;100733.59;;;18.65;73.36
23473;BME280;11909;52.516;13.564;2023-07-13T05:09:20;100730.66;;;18.70;73.23
23473;BME280;11909;52.516;13.564;2023-07-13T05:11:48;100730.56;;;18.79;72.81
23473;BME280;11909;52.516;13.564;2023-07-13T05:14:16;100746.63;;;18.82;72.75
23473;BME280;11909;52.516;13.564;2023-07-13T05:16:44;100744.44;;;18.88;72.14
23473;BME280;11909;52.516;13.564;2023-07-13T05:19:12;100732.63;;;18.91;72.11
23473;BME280;11909;52.516;13.564;2023-07-13T05:21:41;100735.72;;;18.98;71.92
23473;BME280;11909;52.516;13.564;2023-07-13T05:24:09;100743.53;;;19.05;70.58
23473;BME280;11909;52.516;13.564;2023-07-13T05:26:50;100745.66;;;19.08;70.26
23473;BME280;11909;52.516;13.564;2023-07-13T05:29:19;100746.91;;;19.11;70.58
23473;BME280;11909;52.516;13.564;2023-07-13T05:31:47;100746.22;;;19.14;71.01
23473;BME280;11909;52.516;13.564;2023-07-13T05:34:15;100740.50;;;19.19;71.53
23473;BME280;11909;52.516;13.564;2023-07-13T05:36:44;100749.31;;;19.21;71.44
23473;BME280;11909;52.516;13.564;2023-07-13T05:39:12;100739.81;;;19.22;70.14
23473;BME280;11909;52.516;13.564;2023-07-13T05:41:40;100756.28;;;19.27;69.51
23473;BME280;11909;52.516;13.564;2023-07-13T05:44:08;100751.66;;;19.31;69.58
23473;BME280;11909;52.516;13.564;2023-07-13T05:46:36;100750.19;;;19.34;69.44
23473;BME280;11909;52.516;13.564;2023-07-13T05:49:04;100745.88;;;19.37;69.23
23473;BME280;11909;52.516;13.564;2023-07-13T05:51:32;100752.22;;;19.46;68.56
23473;BME280;11909;52.516;13.564;2023-07-13T05:54:01;100764.53;;;19.57;67.24
23473;BME280;11909;52.516;13.564;2023-07-13T05:56:29;100766.22;;;19.71;64.75
23473;BME280;11909;52.516;13.564;2023-07-13T05:58:57;100768.00;;;19.75;64.09
23473;BME280;11909;52.516;13.564;2023-07-13T06:01:25;100759.28;;;19.77;64.13
23473;BME280;11909;52.516;13.564;2023-07-13T06:03:53;100764.63;;;19.82;64.07
23473;BME280;11909;52.516;13.564;2023-07-13T06:06:21;100757.78;;;19.80;64.78
23473;BME280;11909;52.516;13.564;2023-07-13T06:08:49;100762.34;;;19.84;65.57
23473;BME280;11909;52.516;13.564;2023-07-13T06:11:20;100765.38;;;19.91;66.47
23473;BME280;11909;52.516;13.564;2023-07-13T06:13:49;100758.78;;;19.96;64.41
23473;BME280;11909;52.516;13.564;2023-07-13T06:16:17;100761.22;;;19.98;64.93
23473;BME280;11909;52.516;13.564;2023-07-13T06:18:45;100764.94;;;20.02;64.83
23473;BME280;11909;52.516;13.564;2023-07-13T06:21:15;100771.81;;;20.04;64.17
23473;BME280;11909;52.516;13.564;2023-07-13T06:23:43;100770.78;;;20.09;63.73
23473;BME280;11909;52.516;13.564;2023-07-13T06:26:11;100760.91;;;20.12;63.94
23473;BME280;11909;52.516;13.564;2023-07-13T06:28:41;100765.78;;;20.15;63.31
23473;BME280;11909;52.516;13.564;2023-07-13T06:31:11;100765.78;;;20.15;63.78
23473;BME280;11909;52.516;13.564;2023-07-13T06:33:40;100768.94;;;20.26;63.47
23473;BME280;11909;52.516;13.564;2023-07-13T06:36:09;100763.81;;;20.28;63.04
23473;BME280;11909;52.516;13.564;2023-07-13T06:38:38;100755.22;;;20.20;62.74
23473;BME280;11909;52.516;13.564;2023-07-13T06:41:07;100762.56;;;20.25;62.81
23473;BME280;11909;52.516;13.564;2023-07-13T06:43:37;100764.78;;;20.32;62.98
23473;BME280;11909;52.516;13.564;2023-07-13T06:46:06;100763.84;;;20.40;62.96
23473;BME280;11909;52.516;13.564;2023-07-13T06:48:35;100759.19;;;20.44;62.63
23473;BME280;11909;52.516;13.564;2023-07-13T06:51:03;100767.31;;;20.49;61.89
23473;BME280;11909;52.516;13.564;2023-07-13T06:53:31;100765.25;;;20.59;61.84
23473;BME280;11909;52.516;13.564;2023-07-13T06:55:59;100777.09;;;20.68;59.89
23473;BME280;11909;52.516;13.564;2023-07-13T06:58:27;100778.84;;;20.73;60.68
23473;BME280;11909;52.516;13.564;2023-07-13T07:00:56;100781.63;;;20.73;59.62
23473;BME280;11909;52.516;13.564;2023-07-13T07:03:25;100773.97;;;20.70;60.97
23473;BME280;11909;52.516;13.564;2023-07-13T07:05:54;100772.44;;;20.72;60.38
23473;BME280;11909;52.516;13.564;2023-07-13T07:08:22;100776.63;;;20.78;60.80
23473;BME280;11909;52.516;13.564;2023-07-13T07:10:50;100766.41;;;20.83;60.69
23473;BME280;11909;52.516;13.564;2023-07-13T07:13:21;100777.53;;;21.08;57.60
23473;BME280;11909;52.516;13.564;2023-07-13T07:15:50;100775.91;;;21.06;58.13
23473;BME280;11909;52.516;13.564;2023-07-13T07:18:19;100786.38;;;21.10;56.17
23473;BME280;11909;52.516;13.564;2023-07-13T07:20:50;100784.50;;;21.14;56.43
23473;BME280;11909;52.516;13.564;2023-07-13T07:23:18;100768.91;;;21.13;57.54
23473;BME280;11909;52.516;13.564;2023-07-13T07:25:46;100770.88;;;21.25;57.73
23473;BME280;11909;52.516;13.564;2023-07-13T07:28:16;100785.50;;;21.34;55.35
23473;BME280;11909;52.516;13.564;2023-07-13T07:30:48;100779.75;;;21.43;55.38
23473;BME280;11909;52.516;13.564;2023-07-13T07:33:19;100781.88;;;21.46;54.70
23473;BME280;11909;52.516;13.564;2023-07-13T07:35:48;100788.69;;;21.48;55.51
23473;BME280;11909;52.516;13.564;2023-07-13T07:38:20;100786.03;;;21.52;55.99
23473;BME280;11909;52.516;13.564;2023-07-13T07:40:52;100790.63;;;21.60;56.07
23473;BME280;11909;52.516;13.564;2023-07-13T07:43:23;100796.84;;;21.82;54.77
23473;BME280;11909;52.516;13.564;2023-07-13T07:45:51;100788.13;;;21.84;54.93
23473;BME280;11909;52.516;13.564;2023-07-13T07:48:19;100782.84;;;21.95;55.53
23473;BME280;11909;52.516;13.564;2023-07-13T07:50:47;100790.69;;;22.05;53.99
23473;BME280;11909;52.516;13.564;2023-07-13T07:53:16;100793.94;;;22.07;53.44
23473;BME280;11909;52.516;13.564;2023-07-13T07:55:45;100785.19;;;22.09;53.85
23473;BME280;11909;52.516;13.564;2023-07-13T07:58:17;100792.78;;;22.24;51.98
23473;BME280;11909;52.516;13.564;2023-07-13T08:00:48;100795.94;;;22.39;51.00
23473;BME280;11909;52.516;13.564;2023-07-13T08:03:19;100795.94;;;22.39;51.35
23473;BME280;11909;52.516;13.564;2023-07-13T08:05:52;100794.16;;;22.46;51.96
23473;BME280;11909;52.516;13.564;2023-07-13T08:08:23;100795.06;;;22.67;51.72
23473;BME280;11909;52.516;13.564;2023-07-13T08:10:53;100803.63;;;22.74;49.68
23473;BME280;11909;52.516;13.564;2023-07-13T08:13:26;100806.25;;;22.67;49.33
23473;BME280;11909;52.516;13.564;2023-07-13T08:15:54;100807.16;;;22.55;49.79
23473;BME280;11909;52.516;13.564;2023-07-13T08:18:22;100805.50;;;22.38;50.60
23473;BME280;11909;52.516;13.564;2023-07-13T08:20:50;100804.22;;;22.35;51.02
23473;BME280;11909;52.516;13.564;2023-07-13T08:23:18;100803.72;;;22.45;50.62
23473;BME280;11909;52.516;13.564;2023-07-13T08:25:51;100813.88;;;22.38;50.90
23473;BME280;11909;52.516;13.564;2023-07-13T08:28:20;100808.38;;;22.25;50.23
23473;BME280;11909;52.516;13.564;2023-07-13T08:30:49;100813.53;;;22.39;49.88
23473;BME280;11909;52.516;13.564;2023-07-13T08:33:17;100820.41;;;22.58;50.15
23473;BME280;11909;52.516;13.564;2023-07-13T08:35:46;100812.38;;;22.72;50.35
23473;BME280;11909;52.516;13.564;2023-07-13T08:38:15;100806.34;;;22.70;50.86
23473;BME280;11909;52.516;13.564;2023-07-13T08:40:43;100813.91;;;22.86;49.50
23473;BME280;11909;52.516;13.564;2023-07-13T08:43:16;100810.84;;;22.75;50.15
23473;BME280;11909;52.516;13.564;2023-07-13T08:45:48;100809.41;;;22.81;50.44
23473;BME280;11909;52.516;13.564;2023-07-13T08:48:23;100814.34;;;22.88;50.88
23473;BME280;11909;52.516;13.564;2023-07-13T08:50:57;100815.53;;;22.87;48.06
23473;BME280;11909;52.516;13.564;2023-07-13T08:53:30;100824.00;;;22.74;49.40
23473;BME280;11909;52.516;13.564;2023-07-13T08:56:01;100820.78;;;22.72;50.55
23473;BME280;11909;52.516;13.564;2023-07-13T08:58:30;100828.25;;;22.84;47.93
23473;BME280;11909;52.516;13.564;2023-07-13T09:01:06;100824.47;;;22.76;48.47
23473;BME280;11909;52.516;13.564;2023-07-13T09:03:47;100827.72;;;22.62;49.46
23473;BME280;11909;52.516;13.564;2023-07-13T09:06:20;100836.28;;;22.70;47.92
23473;BME280;11909;52.516;13.564;2023-07-13T09:08:59;100843.16;;;22.56;48.31
23473;BME280;11909;52.516;13.564;2023-07-13T09:11:43;100837.53;;;22.40;48.87
23473;BME280;11909;52.516;13.564;2023-07-13T09:14:34;100830.56;;;22.34;49.99
23473;BME280;11909;52.516;13.564;2023-07-13T09:17:10;100827.16;;;22.41;49.62
23473;BME280;11909;52.516;13.564;2023-07-13T09:19:40;100833.69;;;22.61;48.99
23473;BME280;11909;52.516;13.564;2023-07-13T09:22:14;100843.84;;;22.85;48.81
23473;BME280;11909;52.516;13.564;2023-07-13T09:24:52;100825.88;;;23.02;49.29
23473;BME280;11909;52.516;13.564;2023-07-13T09:27:27;100831.44;;;23.18;49.06
23473;BME280;11909;52.516;13.564;2023-07-13T09:30:03;100831.56;;;23.42;48.15
23473;BME280;11909;52.516;13.564;2023-07-13T09:32:34;100840.00;;;23.61;45.44
23473;BME280;11909;52.516;13.564;2023-07-13T09:35:09;100840.66;;;23.74;44.55
23473;BME280;11909;52.516;13.564;2023-07-13T09:37:38;100833.66;;;23.84;44.86
23473;BME280;11909;52.516;13.564;2023-07-13T09:40:12;100825.06;;;23.97;46.87
23473;BME280;11909;52.516;13.564;2023-07-13T09:42:44;100829.00;;;24.12;46.36
23473;BME280;11909;52.516;13.564;2023-07-13T09:45:17;100847.38;;;24.32;40.98
23473;BME280;11909;52.516;13.564;2023-07-13T09:48:04;100853.31;;;24.51;40.14
23473;BME280;11909;52.516;13.564;2023-07-13T09:50:33;100852.66;;;24.57;40.44
23473;BME280;11909;52.516;13.564;2023-07-13T09:53:02;100844.16;;;24.54;40.70
23473;BME280;11909;52.516;13.564;2023-07-13T09:55:32;100849.66;;;24.46;39.58
23473;BME280;11909;52.516;13.564;2023-07-13T09:58:10;100846.03;;;24.23;39.90
23473;BME280;11909;52.516;13.564;2023-07-13T10:00:39;100839.69;;;24.06;41.50
23473;BME280;11909;52.516;13.564;2023-07-13T10:03:19;100837.97;;;24.21;42.00
23473;BME280;11909;52.516;13.564;2023-07-13T10:05:49;100840.53;;;24.30;43.20
23473;BME280;11909;52.516;13.564;2023-07-13T10:08:21;100849.94;;;24.41;40.09
23473;BME280;11909;52.516;13.564;2023-07-13T10:10:53;100838.16;;;24.55;41.87
23473;BME280;11909;52.516;13.564;2023-07-13T10:13:27;100834.47;;;24.74;40.72
23473;BME280;11909;52.516;13.564;2023-07-13T10:15:57;100850.03;;;24.68;39.11
23473;BME280;11909;52.516;13.564;2023-07-13T10:18:28;100838.59;;;24.81;40.67
23473;BME280;11909;52.516;13.564;2023-07-13T10:21:17;100839.28;;;24.74;39.11
23473;BME280;11909;52.516;13.564;2023-07-13T10:24:06;100840.28;;;24.62;40.96
23473;BME280;11909;52.516;13.564;2023-07-13T10:26:44;100849.44;;;24.59;40.33
23473;BME280;11909;52.516;13.564;2023-07-13T10:29:15;100852.63;;;24.81;38.86
23473;BME280;11909;52.516;13.564;2023-07-13T10:31:45;100858.69;;;24.83;38.20
23473;BME280;11909;52.516;13.564;2023-07-13T10:34:15;100843.03;;;24.82;40.58
23473;BME280;11909;52.516;13.564;2023-07-13T10:36:45;100853.56;;;24.88;39.75
23473;BME280;11909;52.516;13.564;2023-07-13T10:39:16;100850.69;;;25.12;41.40
23473;BME280;11909;52.516;13.564;2023-07-13T10:41:48;100852.88;;;25.22;39.26
23473;BME280;11909;52.516;13.564;2023-07-13T10:44:21;100849.25;;;25.22;39.36
23473;BME280;11909;52.516;13.564;2023-07-13T10:46:55;100844.53;;;25.56;38.72
23473;BME280;11909;52.516;13.564;2023-07-13T10:49:27;100849.44;;;25.63;37.94
23473;BME280;11909;52.516;13.564;2023-07-13T10:51:56;100854.53;;;25.88;39.50
23473;BME280;11909;52.516;13.564;2023-07-13T10:54:27;100852.03;;;25.79;36.90
23473;BME280;11909;52.516;13.564;2023-07-13T10:57:14;100856.00;;;25.74;37.56
23473;BME280;11909;52.516;13.564;2023-07-13T10:59:46;100866.31;;;25.36;34.59
23473;BME280;11909;52.516;13.564;2023-07-13T11:02:23;100856.88;;;25.21;35.68
23473;BME280;11909;52.516;13.564;2023-07-13T11:04:55;100850.09;;;25.26;35.83
23473;BME280;11909;52.516;13.564;2023-07-13T11:07:25;100874.16;;;25.23;34.41
23473;BME280;11909;52.516;13.564;2023-07-13T11:09:55;100856.47;;;24.96;35.30
23473;BME280;11909;52.516;13.564;2023-07-13T11:12:49;100858.22;;;25.04;35.50
23473;BME280;11909;52.516;13.564;2023-07-13T11:15:29;100860.75;;;25.13;34.91
23473;BME280;11909;52.516;13.564;2023-07-13T11:18:02;100842.84;;;25.25;36.73
23473;BME280;11909;52.516;13.564;2023-07-13T11:20:37;100854.38;;;25.46;35.41
23473;BME280;11909;52.516;13.564;2023-07-13T11:23:28;100841.72;;;25.56;36.75
23473;BME280;11909;52.516;13.564;2023-07-13T11:25:57;100846.38;;;25.75;35.15
23473;BME280;11909;52.516;13.564;2023-07-13T11:28:30;100842.50;;;25.87;34.85
23473;BME280;11909;52.516;13.564;2023-07-13T11:31:12;100839.84;;;26.02;35.24
23473;BME280;11909;52.516;13.564;2023-07-13T11:33:55;100844.09;;;26.23;34.15
23473;BME280;11909;52.516;13.564;2023-07-13T11:36:30;100837.75;;;26.29;33.75
23473;BME280;11909;52.516;13.564;2023-07-13T11:39:02;100838.31;;;26.08;34.40
23473;BME280;11909;52.516;13.564;2023-07-13T11:41:32;100839.63;;;26.18;32.51
23473;BME280;11909;52.516;13.564;2023-07-13T11:44:07;100826.84;;;26.28;34.44
23473;BME280;11909;52.516;13.564;2023-07-13T11:46:35;100827.72;;;26.32;35.10
23473;BME280;11909;52.516;13.564;2023-07-13T11:49:04;100837.78;;;26.37;32.39
23473;BME280;11909;52.516;13.564;2023-07-13T11:51:36;100836.78;;;26.56;34.26
23473;BME280;11909;52.516;13.564;2023-07-13T11:54:06;100826.78;;;26.62;33.09
23473;BME280;11909;52.516;13.564;2023-07-13T11:56:34;100836.09;;;26.73;33.13
23473;BME280;11909;52.516;13.564;2023-07-13T11:59:06;100844.91;;;26.65;32.45
23473;BME280;11909;52.516;13.564;2023-07-13T12:01:34;100842.09;;;26.68;31.13
23473;BME280;11909;52.516;13.564;2023-07-13T12:04:20;100852.19;;;26.73;31.95
23473;BME280;11909;52.516;13.564;2023-07-13T12:06:55;100841.59;;;26.55;32.27
23473;BME280;11909;52.516;13.564;2023-07-13T12:09:27;100821.16;;;26.62;35.82
23473;BME280;11909;52.516;13.564;2023-07-13T12:11:57;100834.84;;;26.67;33.47
23473;BME280;11909;52.516;13.564;2023-07-13T12:14:27;100836.75;;;26.52;33.26
23473;BME280;11909;52.516;13.564;2023-07-13T12:16:55;100844.03;;;26.60;33.07
23473;BME280;11909;52.516;13.564;2023-07-13T12:19:25;100832.44;;;26.69;34.34
23473;BME280;11909;52.516;13.564;2023-07-13T12:21:57;100823.81;;;26.96;33.34
23473;BME280;11909;52.516;13.564;2023-07-13T12:24:26;100827.38;;;26.86;34.18
23473;BME280;11909;52.516;13.564;2023-07-13T12:26:59;100832.31;;;27.00;32.31
23473;BME280;11909;52.516;13.564;2023-07-13T12:29:28;100831.94;;;27.05;32.26
23473;BME280;11909;52.516;13.564;2023-07-13T12:31:57;100845.22;;;27.04;31.32
23473;BME280;11909;52.516;13.564;2023-07-13T12:34:26;100819.75;;;26.90;33.34
23473;BME280;11909;52.516;13.564;2023-07-13T12:36:59;100826.66;;;27.00;32.44
23473;BME280;11909;52.516;13.564;2023-07-13T12:39:32;100829.44;;;26.96;32.22
23473;BME280;11909;52.516;13.564;2023-07-13T12:42:17;100825.25;;;26.75;33.09
23473;BME280;11909;52.516;13.564;2023-07-13T12:44:47;100820.00;;;26.70;34.27
23473;BME280;11909;52.516;13.564;2023-07-13T12:47:16;100824.56;;;26.86;34.65
23473;BME280;11909;52.516;13.564;2023-07-13T12:49:48;100821.94;;;27.15;33.90
23473;BME280;11909;52.516;13.564;2023-07-13T12:52:23;100829.56;;;27.11;32.72
23473;BME280;11909;52.516;13.564;2023-07-13T12:54:56;100826.22;;;26.90;31.81
23473;BME280;11909;52.516;13.564;2023-07-13T12:57:38;100840.97;;;26.76;31.77
23473;BME280;11909;52.516;13.564;2023-07-13T13:00:21;100837.56;;;26.53;31.98